CheckWX is a tool to help pilots better visualize weather data.  It is not intended as a substitute for an official pre-flight weather briefing.

09:11:25 UTC

LQSA METAR
Sarajevo International Airport
Sarajevo, Bosnia and Herzegovina
Current

11 mins ago

LQSA 240900Z 31006KT 280V3400 9999 SCT050 13/03 Q1022 NOSIG
Observed
Feb-24 @ 09:00 UTC
Wind
  • 310° at 6 KTS
Visibility
10,000+ meters
Flight Rules
VFR
Cloud Levels
  • Scattered at 5,000' AGL
Temperature
13°C / 55°F
Dewpoint
C / 37°F
Humidity
51%
Altimeter
30.18" Hg
Pressure
1021.92 hPa
Previous

41 mins ago

LQSA 240830Z 11003KT 070V170 9999 FEW065 10/03 Q1021 NOSIG
Observed
Feb-24 @ 08:30 UTC
Wind
  • 110° at 3 KTS
Visibility
10,000+ meters
Flight Rules
VFR
Cloud Levels
  • Few at 6,500' AGL
Temperature
10°C / 50°F
Dewpoint
C / 37°F
Humidity
62%
Altimeter
30.15" Hg
Pressure
1020.92 hPa
Previous

1 hour ago

LQSA 240800Z 30003KT 260V030 9999 FEW065 07/03 Q1021 NOSIG
Observed
Feb-24 @ 08:00 UTC
Wind
  • 300° at 3 KTS
Visibility
10,000+ meters
Flight Rules
VFR
Cloud Levels
  • Few at 6,500' AGL
Temperature
C / 45°F
Dewpoint
C / 37°F
Humidity
76%
Altimeter
30.15" Hg
Pressure
1020.92 hPa